Time;durP1;ratioP1;P1;durP2;ratioP2;P2;SDS_P1;SDS_P2;PMS_P1;PMS_P2;Temp;Humidity;BMP_temperature;BMP_pressure;BME280_temperature;BME280_humidity;BME280_pressure;Samples;Min_cycle;Max_cycle;Signal;HPM_P1;HPM_P2
2021/10/22 10:42:15;;;;;;;6.28;2.45;;;8.30;99.90;;;;;;5090988;28;20549;-68
2021/10/22 10:44:42;;;;;;;9.73;2.60;;;8.40;99.90;;;;;;5089860;28;20211;-68
2021/10/22 10:47:26;;;;;;;9.13;2.83;;;8.50;99.90;;;;;;5090870;28;20164;-68
2021/10/22 10:49:51;;;;;;;10.15;2.22;;;8.60;99.90;;;;;;5090744;28;20182;-68
2021/10/22 10:52:36;;;;;;;5.13;2.75;;;8.70;99.90;;;;;;5090766;28;20254;-68
2021/10/22 10:55:31;;;;;;;10.77;3.33;;;8.70;99.90;;;;;;5089482;28;20180;-69
2021/10/22 10:58:19;;;;;;;6.75;2.80;;;8.80;99.90;;;;;;5090690;28;20159;-68
2021/10/22 11:00:50;;;;;;;5.10;2.13;;;8.80;99.90;;;;;;5090782;28;20203;-68
2021/10/22 11:03:18;;;;;;;5.22;2.30;;;8.90;99.90;;;;;;5090577;28;20202;-68
2021/10/22 11:05:50;;;;;;;6.32;2.38;;;9.00;99.90;;;;;;5089245;28;20168;-68
2021/10/22 11:08:18;;;;;;;10.40;2.42;;;9.10;99.90;;;;;;5090532;28;20160;-68
2021/10/22 11:11:01;;;;;;;10.23;3.38;;;9.10;99.90;;;;;;5090372;28;20251;-68
2021/10/22 11:13:41;;;;;;;11.18;2.33;;;9.10;99.90;;;;;;5090419;28;20163;-68
2021/10/22 11:16:20;;;;;;;11.32;2.47;;;9.20;99.90;;;;;;5090366;28;20225;-68
2021/10/22 11:19:03;;;;;;;11.68;2.88;;;9.20;99.90;;;;;;5090342;28;20164;-68
2021/10/22 11:21:36;;;;;;;21.70;4.22;;;9.10;99.90;;;;;;5090413;28;20282;-68
2021/10/22 11:24:04;;;;;;;3.35;2.30;;;9.20;99.90;;;;;;5090216;28;20171;-68
2021/10/22 11:26:31;;;;;;;2.67;1.92;;;9.20;99.90;;;;;;5090279;28;20213;-68
2021/10/22 11:29:00;;;;;;;5.63;2.55;;;9.20;99.90;;;;;;5090092;28;20167;-68
2021/10/22 11:31:47;;;;;;;6.28;2.22;;;9.20;99.90;;;;;;5090024;28;20179;-68
2021/10/22 11:34:18;;;;;;;5.57;2.00;;;9.10;99.90;;;;;;5090009;28;20194;-68
2021/10/22 11:37:15;;;;;;;13.73;3.25;;;9.10;99.90;;;;;;5090005;28;20172;-68
2021/10/22 11:39:50;;;;;;;8.93;2.13;;;9.20;99.90;;;;;;5088338;28;20164;-68
2021/10/22 11:42:30;;;;;;;9.85;3.65;;;9.20;99.90;;;;;;5089866;28;20163;-68
2021/10/22 11:45:05;;;;;;;5.93;2.42;;;9.20;99.90;;;;;;5088806;28;20495;-68
2021/10/22 11:47:44;;;;;;;7.80;2.30;;;9.20;99.90;;;;;;5089704;28;20163;-68
2021/10/22 11:50:24;;;;;;;6.13;2.00;;;9.20;99.90;;;;;;5089620;28;20574;-69
2021/10/22 11:53:11;;;;;;;8.00;2.58;;;9.10;99.90;;;;;;5077125;28;20178;-68
2021/10/22 11:55:38;;;;;;;3.22;1.88;;;9.10;99.90;;;;;;5074807;28;20204;-68
2021/10/22 11:58:09;;;;;;;7.55;2.00;;;9.00;99.90;;;;;;5076081;28;20160;-68
2021/10/22 12:00:36;;;;;;;4.32;2.08;;;9.00;99.90;;;;;;5075931;28;20203;-68
2021/10/22 12:03:01;;;;;;;8.98;2.38;;;9.00;99.90;;;;;;5075924;28;20246;-68
2021/10/22 12:05:27;;;;;;;3.53;2.08;;;9.00;99.90;;;;;;5075938;28;20164;-68
2021/10/22 12:37:09;;;;;;;3.42;2.67;;;8.80;99.90;;;;;;5091039;27;20566;-68
2021/10/22 12:39:43;;;;;;;4.30;2.15;;;8.90;99.90;;;;;;5090881;28;20185;-68
2021/10/22 12:42:23;;;;;;;7.90;2.40;;;8.90;99.90;;;;;;5090848;28;20572;-68
2021/10/22 12:44:49;;;;;;;9.50;2.78;;;9.00;99.90;;;;;;5090778;28;20175;-68
2021/10/22 13:58:51;;;;;;;4.68;2.80;;;8.90;99.90;;;;;;5090971;28;20571;-68
2021/10/22 14:01:16;;;;;;;5.50;2.67;;;9.00;99.90;;;;;;5090820;28;20576;-68
2021/10/22 14:03:42;;;;;;;13.68;2.90;;;9.10;99.90;;;;;;5090887;28;20175;-68
2021/10/22 14:06:08;;;;;;;8.10;2.95;;;9.10;99.90;;;;;;5090765;28;20170;-68
